createdAt,value
2022-10-25T00:01:46.437Z,15.27
2022-10-25T00:04:13.881Z,15.13
2022-10-25T00:06:40.675Z,15.10
2022-10-25T00:09:07.390Z,15.12
2022-10-25T00:11:34.264Z,15.09
2022-10-25T00:14:04.093Z,15.09
2022-10-25T00:16:35.938Z,15.11
2022-10-25T00:19:03.156Z,15.07
2022-10-25T00:21:29.465Z,15.06
2022-10-25T00:23:56.164Z,14.97
2022-10-25T00:26:22.534Z,14.81
2022-10-25T00:28:48.865Z,14.89
2022-10-25T00:31:16.488Z,14.82
2022-10-25T00:33:43.574Z,14.79
2022-10-25T00:36:12.952Z,14.80
2022-10-25T00:38:39.111Z,14.74
2022-10-25T00:41:06.427Z,14.70
2022-10-25T00:43:47.433Z,14.70
2022-10-25T00:46:22.596Z,14.74
2022-10-25T00:49:02.242Z,14.69
2022-10-25T00:51:34.708Z,14.65
2022-10-25T00:54:00.831Z,14.67
2022-10-25T00:56:30.995Z,14.69
2022-10-25T00:59:01.427Z,14.74
2022-10-25T01:01:28.862Z,14.77
2022-10-25T01:04:01.901Z,14.85
2022-10-25T01:06:40.211Z,14.82
2022-10-25T01:09:12.978Z,14.95
2022-10-25T01:11:39.492Z,14.98
2022-10-25T01:14:08.292Z,15.01
2022-10-25T01:16:55.274Z,14.99
2022-10-25T01:19:43.831Z,14.89
2022-10-25T01:22:25.155Z,14.90
2022-10-25T01:25:12.429Z,14.90
2022-10-25T01:27:53.629Z,14.91
2022-10-25T01:30:22.586Z,14.88
2022-10-25T01:33:10.223Z,14.85
2022-10-25T01:35:56.619Z,14.83
2022-10-25T01:38:52.747Z,14.76
2022-10-25T01:41:48.796Z,14.82
2022-10-25T01:44:31.071Z,14.79
2022-10-25T01:47:01.943Z,14.82
2022-10-25T01:49:38.747Z,14.79
2022-10-25T01:52:05.096Z,14.75
2022-10-25T01:54:31.405Z,14.72
2022-10-25T01:57:11.511Z,14.73
2022-10-25T01:59:58.456Z,14.75
2022-10-25T02:02:52.996Z,14.73
2022-10-25T02:05:44.726Z,14.76
2022-10-25T02:08:28.409Z,14.73
2022-10-25T02:11:08.317Z,14.67
2022-10-25T02:13:47.484Z,14.63
2022-10-25T02:16:18.534Z,14.59
2022-10-25T02:18:49.014Z,14.60
2022-10-25T02:21:17.219Z,14.55
2022-10-25T02:23:43.981Z,14.55
2022-10-25T02:26:10.960Z,14.51
2022-10-25T02:28:39.454Z,14.52
2022-10-25T02:31:14.934Z,14.45
2022-10-25T02:33:44.283Z,14.51
2022-10-25T02:36:10.558Z,14.52
2022-10-25T02:38:37.154Z,14.55
2022-10-25T02:41:04.944Z,14.61
2022-10-25T02:43:31.686Z,14.61
2022-10-25T02:45:58.824Z,14.57
2022-10-25T02:48:25.684Z,14.51
2022-10-25T02:50:52.000Z,14.53
2022-10-25T02:53:18.062Z,14.53
2022-10-25T02:55:44.651Z,14.55
2022-10-25T02:58:10.799Z,14.54
2022-10-25T03:00:37.142Z,14.50
2022-10-25T03:03:03.311Z,14.45
2022-10-25T03:05:29.644Z,14.42
2022-10-25T03:07:55.773Z,14.44
2022-10-25T03:10:22.180Z,14.38
2022-10-25T03:12:48.505Z,14.42
2022-10-25T03:15:15.405Z,14.45
2022-10-25T03:17:41.533Z,14.49
2022-10-25T03:20:08.788Z,14.55
2022-10-25T03:22:34.948Z,14.54
2022-10-25T03:25:01.333Z,14.61
2022-10-25T03:27:27.529Z,14.64
2022-10-25T03:29:54.159Z,14.66
2022-10-25T03:32:20.238Z,14.75
2022-10-25T03:34:46.613Z,14.72
2022-10-25T03:37:12.701Z,14.78
2022-10-25T03:39:40.284Z,14.81
2022-10-25T03:42:06.552Z,14.87
2022-10-25T03:44:32.814Z,14.90
2022-10-25T03:46:58.948Z,14.92
2022-10-25T03:49:25.887Z,14.96
2022-10-25T03:51:53.998Z,14.96
2022-10-25T03:54:25.635Z,15.00
2022-10-25T03:56:55.084Z,15.01
2022-10-25T03:59:21.394Z,15.00
2022-10-25T04:01:48.354Z,15.03
2022-10-25T04:04:14.756Z,15.08
2022-10-25T04:06:40.915Z,15.12
2022-10-25T04:09:07.248Z,15.16
2022-10-25T04:11:33.526Z,15.19
2022-10-25T04:13:59.885Z,15.19
2022-10-25T04:16:26.271Z,15.21
2022-10-25T04:18:52.920Z,15.26
2022-10-25T04:21:19.697Z,15.30
2022-10-25T04:23:46.101Z,15.25
2022-10-25T04:26:17.376Z,15.32
2022-10-25T04:28:44.509Z,15.32
2022-10-25T04:31:10.579Z,15.36
2022-10-25T04:33:36.906Z,15.41
2022-10-25T04:36:03.331Z,15.44
2022-10-25T04:38:29.616Z,15.39
2022-10-25T04:40:56.973Z,15.40
2022-10-25T04:43:24.223Z,15.39
2022-10-25T04:45:50.522Z,15.37
2022-10-25T04:48:17.848Z,15.33
2022-10-25T04:50:44.031Z,15.33
2022-10-25T04:53:10.633Z,15.25
2022-10-25T04:55:37.037Z,15.25
2022-10-25T04:58:06.136Z,15.21
2022-10-25T05:00:32.336Z,15.14
2022-10-25T05:02:58.822Z,15.09
2022-10-25T05:05:25.941Z,15.11
2022-10-25T05:07:52.680Z,15.14
2022-10-25T05:10:18.863Z,15.11
2022-10-25T05:12:45.646Z,15.08
2022-10-25T05:15:11.900Z,15.09
2022-10-25T05:17:39.297Z,15.04
2022-10-25T05:20:06.184Z,15.02
2022-10-25T05:22:32.719Z,15.00
2022-10-25T05:24:59.009Z,14.95
2022-10-25T05:27:25.418Z,14.99
2022-10-25T05:29:51.564Z,15.03
2022-10-25T05:32:18.146Z,15.08
2022-10-25T05:34:44.272Z,15.05
2022-10-25T05:37:11.430Z,15.06
2022-10-25T05:39:37.574Z,15.04
2022-10-25T05:42:05.629Z,15.08
2022-10-25T05:44:31.915Z,15.08
2022-10-25T05:46:58.301Z,15.07
2022-10-25T05:49:24.440Z,15.10
2022-10-25T05:51:50.695Z,15.18
2022-10-25T05:54:17.176Z,15.23
2022-10-25T05:56:43.798Z,15.21
2022-10-25T05:59:12.622Z,15.28
2022-10-25T06:01:41.774Z,15.29
2022-10-25T06:04:09.532Z,15.37
2022-10-25T06:06:38.046Z,15.37
2022-10-25T06:09:05.315Z,15.38
2022-10-25T06:11:32.876Z,15.40
2022-10-25T06:13:59.101Z,15.43
2022-10-25T06:16:25.447Z,15.47
2022-10-25T06:18:52.369Z,15.52
2022-10-25T06:21:21.076Z,15.62
2022-10-25T06:23:47.996Z,15.64
2022-10-25T06:26:20.302Z,15.62
2022-10-25T06:28:46.896Z,15.64
2022-10-25T06:31:15.636Z,15.55
2022-10-25T06:33:42.503Z,15.55
2022-10-25T06:36:15.952Z,15.63
2022-10-25T06:38:46.166Z,15.73
2022-10-25T06:41:15.202Z,15.86
2022-10-25T06:43:41.579Z,15.95
2022-10-25T06:46:21.778Z,16.08
2022-10-25T06:48:48.969Z,16.15
2022-10-25T06:51:15.471Z,16.20
2022-10-25T06:53:41.847Z,16.23
2022-10-25T06:56:14.399Z,16.22
2022-10-25T06:58:41.747Z,16.31
2022-10-25T07:01:11.406Z,16.42
2022-10-25T07:03:38.157Z,16.42
2022-10-25T07:06:07.040Z,16.34
2022-10-25T07:08:34.926Z,16.32
2022-10-25T07:11:01.846Z,16.35
2022-10-25T07:13:30.947Z,16.42
2022-10-25T07:16:04.930Z,16.51
2022-10-25T07:18:32.585Z,16.61
2022-10-25T07:21:00.692Z,16.64
2022-10-25T07:23:28.510Z,16.66
2022-10-25T07:25:55.471Z,16.78
2022-10-25T07:28:21.929Z,16.79
2022-10-25T07:30:49.028Z,16.84
2022-10-25T07:33:17.493Z,16.77
2022-10-25T07:35:58.710Z,16.65
2022-10-25T07:38:32.278Z,16.69
2022-10-25T07:40:59.057Z,16.72
2022-10-25T07:43:26.005Z,16.68
2022-10-25T07:45:52.813Z,16.67
2022-10-25T07:48:19.400Z,16.65
2022-10-25T07:50:45.812Z,16.72
2022-10-25T07:53:12.054Z,16.77
2022-10-25T07:55:38.690Z,16.85
2022-10-25T07:58:07.208Z,16.89
2022-10-25T08:00:38.297Z,16.84
2022-10-25T08:03:07.042Z,16.83
2022-10-25T08:05:33.437Z,16.78
2022-10-25T08:07:59.664Z,16.70
2022-10-25T08:10:26.196Z,16.64
2022-10-25T08:12:54.918Z,16.70
2022-10-25T08:15:21.850Z,16.85
2022-10-25T08:17:48.435Z,16.84
2022-10-25T08:20:15.249Z,16.95
2022-10-25T08:22:41.794Z,16.95
2022-10-25T08:25:08.602Z,16.92
2022-10-25T08:27:34.795Z,16.99
2022-10-25T08:30:01.187Z,17.07
2022-10-25T08:32:28.908Z,17.06
2022-10-25T08:34:55.269Z,17.17
2022-10-25T08:37:21.363Z,17.22
2022-10-25T08:39:50.041Z,17.20
2022-10-25T08:42:38.753Z,17.26
2022-10-25T08:45:19.342Z,17.32
2022-10-25T08:47:50.435Z,17.47
2022-10-25T08:50:23.476Z,17.46
2022-10-25T08:52:54.319Z,17.64
2022-10-25T08:55:41.823Z,17.70
2022-10-25T08:58:52.403Z,17.83
2022-10-25T09:01:25.870Z,17.83
2022-10-25T09:03:52.415Z,17.95
2022-10-25T09:06:35.483Z,18.13
2022-10-25T09:09:34.409Z,18.15
2022-10-25T09:12:09.895Z,18.25
2022-10-25T09:15:07.874Z,18.22
2022-10-25T09:17:49.625Z,18.26
2022-10-25T09:20:23.073Z,18.20
2022-10-25T09:23:43.922Z,18.18
2022-10-25T09:26:30.263Z,18.20
2022-10-25T09:29:07.957Z,18.22
2022-10-25T09:31:39.630Z,18.25
2022-10-25T09:34:09.684Z,18.32
2022-10-25T09:36:42.325Z,18.41
2022-10-25T09:39:38.175Z,18.41
2022-10-25T09:42:06.890Z,18.28
2022-10-25T09:44:50.385Z,18.18
2022-10-25T09:47:32.005Z,18.29
2022-10-25T09:50:05.489Z,18.23
2022-10-25T09:52:37.941Z,18.18
2022-10-25T09:55:25.641Z,18.28
2022-10-25T09:57:52.245Z,18.35
2022-10-25T10:00:19.357Z,18.32
2022-10-25T10:02:45.578Z,18.34
2022-10-25T10:05:22.379Z,18.26
2022-10-25T10:07:51.211Z,18.29
2022-10-25T10:10:23.524Z,18.20
2022-10-25T10:13:05.657Z,18.28
2022-10-25T10:15:38.480Z,18.36
2022-10-25T10:18:24.197Z,18.28
2022-10-25T10:21:09.104Z,18.27
2022-10-25T10:23:41.324Z,18.34
2022-10-25T10:26:21.978Z,18.25
2022-10-25T10:29:06.460Z,18.29
2022-10-25T10:31:37.519Z,18.32
2022-10-25T10:34:04.497Z,18.35
2022-10-25T10:36:32.613Z,18.31
2022-10-25T10:39:21.486Z,18.18
2022-10-25T10:42:04.596Z,18.26
2022-10-25T10:44:33.903Z,18.23
2022-10-25T10:47:11.919Z,18.23
2022-10-25T10:49:41.744Z,18.18
2022-10-25T10:52:42.831Z,18.24
2022-10-25T10:55:28.811Z,18.30
2022-10-25T10:58:01.964Z,18.33
2022-10-25T11:00:30.015Z,18.38
2022-10-25T11:05:29.707Z,18.44
2022-10-25T11:08:18.077Z,18.57
2022-10-25T11:10:44.424Z,18.66
2022-10-25T11:13:14.293Z,18.74
2022-10-25T11:15:43.245Z,18.62
2022-10-25T11:18:11.148Z,18.67
2022-10-25T11:20:50.099Z,18.72
2022-10-25T11:23:22.907Z,18.65
2022-10-25T11:26:00.122Z,18.63
2022-10-25T11:28:52.888Z,18.72
2022-10-25T11:31:33.007Z,18.88
2022-10-25T11:34:37.501Z,18.87
2022-10-25T11:37:19.693Z,18.88
2022-10-25T11:40:06.321Z,19.00
2022-10-25T11:42:39.489Z,19.07
2022-10-25T11:45:34.351Z,18.97
2022-10-25T11:48:25.579Z,19.04
2022-10-25T11:51:43.948Z,19.10
2022-10-25T11:54:21.779Z,18.94
2022-10-25T11:57:09.261Z,19.00
2022-10-25T12:00:15.085Z,19.10
2022-10-25T12:02:52.598Z,19.22
2022-10-25T12:05:22.127Z,19.35
2022-10-25T12:08:05.524Z,19.43
2022-10-25T12:10:37.187Z,19.39
2022-10-25T12:13:20.663Z,19.31
2022-10-25T12:15:50.315Z,19.42
2022-10-25T12:18:25.320Z,19.42
2022-10-25T12:20:54.046Z,19.66
2022-10-25T12:23:24.583Z,19.55
2022-10-25T12:25:58.167Z,19.27
2022-10-25T12:28:43.343Z,19.34
2022-10-25T12:31:35.146Z,19.48
2022-10-25T12:34:10.586Z,19.48
2022-10-25T12:36:42.025Z,19.42
2022-10-25T12:39:25.438Z,19.35
2022-10-25T12:42:05.841Z,19.39
2022-10-25T12:44:53.402Z,19.58
2022-10-25T12:47:54.571Z,19.55
2022-10-25T12:50:36.602Z,19.47
2022-10-25T12:53:41.338Z,19.36
2022-10-25T12:56:26.217Z,19.29
2022-10-25T12:58:58.829Z,19.22
2022-10-25T13:01:56.623Z,19.10
2022-10-25T13:04:36.131Z,19.02
2022-10-25T13:07:06.191Z,18.73
2022-10-25T13:09:35.416Z,18.65
2022-10-25T13:12:06.145Z,18.58
2022-10-25T13:14:46.783Z,18.60
2022-10-25T13:17:15.917Z,18.40
2022-10-25T13:19:58.989Z,18.10
2022-10-25T13:22:39.817Z,17.93
2022-10-25T13:25:16.228Z,17.88
2022-10-25T13:28:10.926Z,17.70
2022-10-25T13:30:37.927Z,17.68
2022-10-25T13:33:23.736Z,17.61
2022-10-25T13:35:50.732Z,17.59
2022-10-25T13:38:22.613Z,17.58
2022-10-25T13:41:13.356Z,17.44
2022-10-25T13:44:19.403Z,17.35
2022-10-25T13:46:47.436Z,17.38
2022-10-25T13:49:35.452Z,17.24
2022-10-25T13:52:06.688Z,17.20
2022-10-25T13:54:42.089Z,17.16
2022-10-25T13:57:47.655Z,17.04
2022-10-25T14:00:22.852Z,17.05
2022-10-25T14:03:07.908Z,16.99
2022-10-25T14:05:53.381Z,17.03
2022-10-25T14:09:14.363Z,17.11
2022-10-25T14:11:48.401Z,17.12
2022-10-25T14:14:25.226Z,17.18
2022-10-25T14:17:22.693Z,17.18
2022-10-25T14:20:15.748Z,17.12
2022-10-25T14:22:47.579Z,17.20
2022-10-25T14:25:17.072Z,17.20
2022-10-25T14:27:43.741Z,17.18
2022-10-25T14:30:27.338Z,17.08
2022-10-25T14:33:05.835Z,17.06
2022-10-25T14:35:45.585Z,17.08
2022-10-25T14:38:17.461Z,17.20
2022-10-25T14:41:11.486Z,17.22
2022-10-25T14:43:38.355Z,17.24
2022-10-25T14:46:15.500Z,17.23
2022-10-25T14:48:46.934Z,17.24
2022-10-25T14:51:21.232Z,17.22
2022-10-25T14:54:02.474Z,17.23
2022-10-25T14:56:51.705Z,17.22
2022-10-25T14:59:32.279Z,17.14
2022-10-25T15:02:04.209Z,17.10
2022-10-25T15:04:39.323Z,17.05
2022-10-25T15:07:17.640Z,16.99
2022-10-25T15:09:48.722Z,17.03
2022-10-25T15:12:19.866Z,17.06
2022-10-25T15:14:47.523Z,17.02
2022-10-25T15:17:30.289Z,17.03
2022-10-25T15:20:16.175Z,17.08
2022-10-25T15:22:46.085Z,17.05
2022-10-25T15:25:33.187Z,16.96
2022-10-25T15:28:19.932Z,16.90
2022-10-25T15:30:48.839Z,16.80
2022-10-25T15:33:18.695Z,16.73
2022-10-25T15:35:55.138Z,16.62
2022-10-25T15:38:37.147Z,16.54
2022-10-25T15:41:12.081Z,16.48
2022-10-25T15:43:38.700Z,16.39
2022-10-25T15:46:06.444Z,16.27
2022-10-25T15:48:33.225Z,16.23
2022-10-25T15:50:59.504Z,16.16
2022-10-25T15:53:25.939Z,16.14
2022-10-25T15:55:53.066Z,16.09
2022-10-25T15:58:19.592Z,16.05
2022-10-25T16:00:47.087Z,15.96
2022-10-25T16:03:22.675Z,15.92
2022-10-25T16:05:51.058Z,15.85
2022-10-25T16:08:17.965Z,15.82
2022-10-25T16:10:45.284Z,15.73
2022-10-25T16:13:25.045Z,15.64
2022-10-25T16:15:51.602Z,15.64
2022-10-25T16:18:18.641Z,15.52
2022-10-25T16:20:45.612Z,15.51
2022-10-25T16:23:16.573Z,15.49
2022-10-25T16:25:43.004Z,15.41
2022-10-25T16:28:13.845Z,15.41
2022-10-25T16:30:43.020Z,15.41
2022-10-25T16:33:10.353Z,15.43
2022-10-25T16:35:36.787Z,15.40
2022-10-25T16:38:03.713Z,15.40
2022-10-25T16:40:30.242Z,15.45
2022-10-25T16:42:57.677Z,15.50
2022-10-25T16:45:28.046Z,15.47
2022-10-25T16:47:55.588Z,15.43
2022-10-25T16:50:29.798Z,15.45
2022-10-25T16:53:01.481Z,15.47
2022-10-25T16:55:29.879Z,15.51
2022-10-25T16:57:57.691Z,15.48
2022-10-25T17:00:25.012Z,15.39
2022-10-25T17:02:52.082Z,15.42
2022-10-25T17:05:24.352Z,15.33
2022-10-25T17:07:50.925Z,15.29
2022-10-25T17:10:20.993Z,15.30
2022-10-25T17:12:52.936Z,15.33
2022-10-25T17:15:21.835Z,15.31
2022-10-25T17:17:48.645Z,15.32
2022-10-25T17:20:16.806Z,15.34
2022-10-25T17:22:44.310Z,15.37
2022-10-25T17:25:11.534Z,15.37
2022-10-25T17:27:41.085Z,15.42
2022-10-25T17:30:09.644Z,15.38
2022-10-25T17:32:37.214Z,15.39
2022-10-25T17:35:05.263Z,15.39
2022-10-25T17:37:32.044Z,15.35
2022-10-25T17:39:58.230Z,15.35
2022-10-25T17:42:25.119Z,15.33
2022-10-25T17:44:51.882Z,15.35
2022-10-25T17:47:18.346Z,15.39
2022-10-25T17:49:44.564Z,15.37
2022-10-25T17:52:11.194Z,15.30
2022-10-25T17:54:38.696Z,15.34
2022-10-25T17:57:05.317Z,15.35
2022-10-25T17:59:32.480Z,15.33
2022-10-25T18:01:59.099Z,15.32
2022-10-25T18:04:25.835Z,15.32
2022-10-25T18:06:52.455Z,15.30
2022-10-25T18:09:19.987Z,15.28
2022-10-25T18:11:47.139Z,15.31
2022-10-25T18:14:13.841Z,15.31
2022-10-25T18:16:40.795Z,15.34
2022-10-25T18:19:11.680Z,15.45
2022-10-25T18:21:40.174Z,15.46
2022-10-25T18:24:07.978Z,15.35
2022-10-25T18:26:35.128Z,15.25
2022-10-25T18:29:02.189Z,15.22
2022-10-25T18:31:28.785Z,15.44
2022-10-25T18:33:58.663Z,15.46
2022-10-25T18:36:26.907Z,15.52
2022-10-25T18:38:54.011Z,15.60
2022-10-25T18:41:24.756Z,15.62
2022-10-25T18:43:51.274Z,15.65
2022-10-25T18:46:18.150Z,15.72
2022-10-25T18:48:50.468Z,15.73
2022-10-25T18:51:19.169Z,15.69
2022-10-25T18:53:45.500Z,15.52
2022-10-25T18:56:17.084Z,15.60
2022-10-25T18:58:46.516Z,15.61
2022-10-25T19:01:23.706Z,15.60
2022-10-25T19:03:51.003Z,15.59
2022-10-25T19:06:18.288Z,15.62
2022-10-25T19:08:48.545Z,15.58
2022-10-25T19:11:16.016Z,15.60
2022-10-25T19:13:45.113Z,15.58
2022-10-25T19:16:16.102Z,15.56
2022-10-25T19:18:42.672Z,15.59
2022-10-25T19:21:12.067Z,15.59
2022-10-25T19:23:44.021Z,15.56
2022-10-25T19:26:14.365Z,15.55
2022-10-25T19:28:41.023Z,15.50
2022-10-25T19:31:16.509Z,15.51
2022-10-25T19:33:45.598Z,15.49
2022-10-25T19:36:14.083Z,15.37
2022-10-25T19:38:40.783Z,15.38
2022-10-25T19:41:11.900Z,15.39
2022-10-25T19:43:38.856Z,15.34
2022-10-25T19:46:07.061Z,15.34
2022-10-25T19:48:34.434Z,15.36
2022-10-25T19:51:16.137Z,15.37
2022-10-25T19:53:43.659Z,15.34
2022-10-25T19:56:13.879Z,15.27
2022-10-25T19:58:40.714Z,15.23
2022-10-25T20:01:12.696Z,15.25
2022-10-25T20:03:42.500Z,15.18
2022-10-25T20:06:17.522Z,15.15
2022-10-25T20:08:46.791Z,15.11
2022-10-25T20:11:15.093Z,15.07
2022-10-25T20:13:41.309Z,15.02
2022-10-25T20:16:08.810Z,14.96
2022-10-25T20:18:38.502Z,14.88
2022-10-25T20:21:12.062Z,14.83
2022-10-25T20:23:40.877Z,14.79
2022-10-25T20:26:16.015Z,14.70
2022-10-25T20:28:43.581Z,14.65
2022-10-25T20:31:10.497Z,14.60
2022-10-25T20:33:39.472Z,14.57
2022-10-25T20:36:07.938Z,14.53
2022-10-25T20:38:35.662Z,14.50
2022-10-25T20:41:10.511Z,14.47
2022-10-25T20:43:38.385Z,14.50
2022-10-25T20:46:07.052Z,14.41
2022-10-25T20:48:34.274Z,14.41
2022-10-25T20:51:04.075Z,14.32
2022-10-25T20:53:34.723Z,14.26
2022-10-25T20:56:01.379Z,14.22
2022-10-25T20:58:27.955Z,14.22
2022-10-25T21:00:56.708Z,14.22
2022-10-25T21:03:25.894Z,14.22
2022-10-25T21:06:04.018Z,14.15
2022-10-25T21:08:31.316Z,14.10
2022-10-25T21:11:03.155Z,14.09
2022-10-25T21:13:31.154Z,14.03
2022-10-25T21:15:58.136Z,14.00
2022-10-25T21:18:28.181Z,13.94
2022-10-25T21:21:00.167Z,13.89
2022-10-25T21:23:26.750Z,13.90
2022-10-25T21:26:00.309Z,13.88
2022-10-25T21:28:30.094Z,13.86
2022-10-25T21:31:00.266Z,13.76
2022-10-25T21:33:26.434Z,13.74
2022-10-25T21:35:52.746Z,13.79
2022-10-25T21:38:19.324Z,13.75
2022-10-25T21:40:45.586Z,13.78
2022-10-25T21:43:12.097Z,13.74
2022-10-25T21:45:41.420Z,13.75
2022-10-25T21:48:07.551Z,13.72
2022-10-25T21:50:33.944Z,13.69
2022-10-25T21:53:00.302Z,13.70
2022-10-25T21:55:26.699Z,13.70
2022-10-25T21:57:54.479Z,13.65
2022-10-25T22:00:21.027Z,13.59
2022-10-25T22:02:47.267Z,13.56
2022-10-25T22:05:13.570Z,13.56
2022-10-25T22:07:39.703Z,13.46
2022-10-25T22:10:06.160Z,13.41
2022-10-25T22:12:32.735Z,13.46
2022-10-25T22:14:59.004Z,13.40
2022-10-25T22:17:25.117Z,13.48
2022-10-25T22:19:51.520Z,13.45
2022-10-25T22:22:17.709Z,13.44
2022-10-25T22:24:43.986Z,13.33
2022-10-25T22:27:10.050Z,13.21
2022-10-25T22:29:36.630Z,13.19
2022-10-25T22:32:02.863Z,13.13
2022-10-25T22:34:29.197Z,12.98
2022-10-25T22:36:55.763Z,13.11
2022-10-25T22:39:22.152Z,13.07
2022-10-25T22:41:51.945Z,13.06
2022-10-25T22:44:18.352Z,13.01
2022-10-25T22:46:44.682Z,12.91
2022-10-25T22:49:10.995Z,13.00
2022-10-25T22:51:39.159Z,12.93
2022-10-25T22:54:05.891Z,12.92
2022-10-25T22:56:32.951Z,12.88
2022-10-25T22:59:01.999Z,12.73
2022-10-25T23:01:34.303Z,12.61
2022-10-25T23:04:03.106Z,12.66
2022-10-25T23:06:32.007Z,12.74
2022-10-25T23:09:01.123Z,12.75
2022-10-25T23:11:30.258Z,12.75
2022-10-25T23:13:57.516Z,12.78
2022-10-25T23:16:24.124Z,12.62
2022-10-25T23:18:50.502Z,12.33
2022-10-25T23:21:18.953Z,12.17
2022-10-25T23:23:46.030Z,12.19
2022-10-25T23:26:25.913Z,12.18
2022-10-25T23:28:53.600Z,12.11
2022-10-25T23:31:19.817Z,12.09
2022-10-25T23:33:50.242Z,12.07
2022-10-25T23:36:21.484Z,12.04
2022-10-25T23:38:49.386Z,12.04
2022-10-25T23:41:16.330Z,12.23
2022-10-25T23:43:42.642Z,12.25
2022-10-25T23:46:09.353Z,12.24
2022-10-25T23:48:36.489Z,12.28
2022-10-25T23:51:08.093Z,12.22
2022-10-25T23:53:35.112Z,12.17
2022-10-25T23:56:03.010Z,12.16
2022-10-25T23:58:29.835Z,12.05
